Wilton, New York
Current Conditions -  °F | °C
As of 9:53 PM on Thursday 27 Nov 2014 (Local Time) from KGFL Reporting Station
Light Snow Light Snow  
Wind Chill: -5°   Ceiling: 1800
Heat Index: -2°   Visibility: 1.5mi
Dew Point: -4°   Wind: 5mph
Humidity: 85%   Direction: 30°NNE
Pressure: 30.05"   Gusts: NA
Location:  43.1979°N, 73.6839°W
Report Text: KGFL 280253Z AUTO 03004KT 1 1/2SM -SN BR BKN018 OVC022 M02/M04 A3005 RMK AO2 SLP185 P0000 60001 T10221044 51008
Loading
Personal Weather Stations






























Interactive Weather Map New forecast layout! Learn more

10-Day Weather Forecast

Advertisements
Track Severe Weather on mobile